Time;durP1;ratioP1;P1;durP2;ratioP2;P2;SDS_P1;SDS_P2;PMS_P1;PMS_P2;Temp;Humidity;BMP_temperature;BMP_pressure;BME280_temperature;BME280_humidity;BME280_pressure;Samples;Min_cycle;Max_cycle;Signal;HPM_P1;HPM_P2
2023/01/13 00:01:42;;;;;;;;;;;9.40;99.90;;;;;;4406942;32;19998;-73
2023/01/13 00:04:09;;;;;;;;;;;9.40;99.90;;;;;;4403784;32;19981;-74
2023/01/13 00:06:35;;;;;;;;;;;9.40;99.90;;;;;;4404734;32;19977;-74
2023/01/13 00:09:00;;;;;;;;;;;9.40;99.90;;;;;;4407818;32;19941;-74
2023/01/13 00:11:26;;;;;;;;;;;9.50;99.90;;;;;;4395319;32;19960;-74
2023/01/13 00:13:52;;;;;;;;;;;9.50;99.90;;;;;;4388943;32;19969;-73
2023/01/13 00:16:18;;;;;;;;;;;9.50;99.90;;;;;;4402655;32;20429;-73
2023/01/13 00:18:44;;;;;;;;;;;9.40;99.90;;;;;;4410663;32;19949;-73
2023/01/13 00:21:11;;;;;;;;;;;9.40;99.90;;;;;;4410228;32;19964;-74
2023/01/13 00:23:38;;;;;;;;;;;9.40;99.90;;;;;;4395125;32;20025;-72
2023/01/13 00:26:05;;;;;;;;;;;9.50;99.90;;;;;;4404463;32;19965;-73
2023/01/13 00:28:31;;;;;;;;;;;9.50;99.90;;;;;;4396064;32;19962;-73
2023/01/13 00:31:03;;;;;;;;;;;9.50;99.90;;;;;;4397812;32;19993;-73
2023/01/13 00:33:28;;;;;;;;;;;9.60;99.90;;;;;;4404280;32;20381;-72
2023/01/13 00:35:55;;;;;;;;;;;9.50;99.90;;;;;;4407756;32;19964;-73
2023/01/13 00:38:20;;;;;;;;;;;9.50;99.90;;;;;;4405616;32;20014;-72
2023/01/13 00:40:53;;;;;;;;;;;9.50;99.90;;;;;;4398287;32;20031;-72
2023/01/13 00:43:22;;;;;;;;;;;9.50;99.90;;;;;;4388625;32;19957;-73
2023/01/13 00:45:50;;;;;;;;;;;9.50;99.90;;;;;;4404977;32;19957;-74
2023/01/13 00:48:16;;;;;;;;;;;9.50;99.90;;;;;;4408101;32;19945;-74
2023/01/13 00:50:41;;;;;;;;;;;9.50;99.90;;;;;;4408972;32;19998;-73
2023/01/13 00:53:07;;;;;;;;;;;9.50;99.90;;;;;;4398561;32;20315;-73
2023/01/13 00:55:32;;;;;;;;;;;9.50;99.90;;;;;;4400348;32;19942;-74
2023/01/13 00:58:02;;;;;;;;;;;9.60;99.90;;;;;;4398390;32;19953;-74
2023/01/13 01:00:29;;;;;;;;;;;9.60;99.90;;;;;;4397556;32;19964;-73
2023/01/13 01:02:54;;;;;;;;;;;9.60;99.90;;;;;;4406350;32;19937;-73
2023/01/13 01:05:20;;;;;;;;;;;9.50;99.90;;;;;;4406171;32;19977;-73
2023/01/13 01:07:45;;;;;;;;;;;9.60;99.90;;;;;;4410260;32;19945;-73
2023/01/13 01:10:11;;;;;;;;;;;9.60;99.90;;;;;;4406329;32;19949;-73
2023/01/13 01:12:36;;;;;;;;;;;9.60;99.90;;;;;;4392757;32;19992;-73
2023/01/13 01:15:04;;;;;;;;;;;9.60;99.90;;;;;;4391952;32;20049;-71
2023/01/13 01:17:30;;;;;;;;;;;9.60;99.90;;;;;;4408190;32;19972;-72
2023/01/13 01:19:55;;;;;;;;;;;9.60;99.90;;;;;;4404434;32;19971;-72
2023/01/13 01:22:21;;;;;;;;;;;9.60;99.90;;;;;;4399258;32;20051;-74
2023/01/13 01:24:46;;;;;;;;;;;9.60;99.90;;;;;;4402538;32;19957;-73
2023/01/13 01:27:11;;;;;;;;;;;9.60;99.90;;;;;;4409932;32;20350;-73
2023/01/13 01:29:37;;;;;;;;;;;9.60;99.90;;;;;;4396919;32;20008;-73
2023/01/13 01:32:02;;;;;;;;;;;9.60;99.90;;;;;;4407602;32;19969;-73
2023/01/13 01:34:28;;;;;;;;;;;9.60;99.90;;;;;;4406263;32;20296;-73
2023/01/13 01:36:53;;;;;;;;;;;9.60;99.90;;;;;;4408868;32;21121;-73
2023/01/13 01:39:19;;;;;;;;;;;9.70;99.90;;;;;;4410038;32;19946;-72
2023/01/13 01:43:57;;;;;;;;;;;9.70;99.90;;;;;;4391601;32;19965;-74
2023/01/13 01:44:49;;;;;;;;;;;9.70;99.90;;;;;;4392329;32;20374;-72
2023/01/13 01:47:16;;;;;;;;;;;9.70;99.90;;;;;;4398802;32;20050;-73
2023/01/13 01:49:43;;;;;;;;;;;9.60;99.90;;;;;;4409412;32;19965;-73
2023/01/13 01:52:13;;;;;;;;;;;9.70;99.90;;;;;;4398859;32;20429;-74
2023/01/13 01:54:42;;;;;;;;;;;9.70;99.90;;;;;;4401358;32;19969;-72
2023/01/13 01:57:09;;;;;;;;;;;9.70;99.90;;;;;;4406765;32;19955;-74
2023/01/13 01:59:36;;;;;;;;;;;9.70;99.90;;;;;;4393877;32;19980;-71
2023/01/13 02:02:01;;;;;;;;;;;9.70;99.90;;;;;;4405322;32;20101;-72
2023/01/13 02:04:29;;;;;;;;;;;9.70;99.90;;;;;;4409876;32;19988;-73
2023/01/13 02:06:55;;;;;;;;;;;9.70;99.90;;;;;;4406606;32;19961;-72
2023/01/13 02:09:21;;;;;;;;;;;9.80;99.90;;;;;;4404395;32;20447;-72
2023/01/13 02:12:46;;;;;;;;;;;9.80;99.90;;;;;;4390448;32;19981;-74
2023/01/13 02:14:32;;;;;;;;;;;9.70;99.90;;;;;;4392630;32;20349;-73
2023/01/13 02:17:05;;;;;;;;;;;9.70;99.90;;;;;;4401708;32;19949;-74
2023/01/13 02:19:47;;;;;;;;;;;9.80;99.90;;;;;;4407066;32;19949;-72
2023/01/13 02:22:19;;;;;;;;;;;9.80;99.90;;;;;;4392602;32;20330;-74
2023/01/13 02:24:59;;;;;;;;;;;9.70;99.90;;;;;;4396029;32;19957;-73
2023/01/13 02:27:45;;;;;;;;;;;9.80;99.90;;;;;;4390349;32;19984;-74
2023/01/13 02:31:42;;;;;;;;;;;9.80;99.90;;;;;;4391319;32;20035;-72
2023/01/13 02:33:16;;;;;;;;;;;9.80;99.90;;;;;;4405894;32;19976;-73
2023/01/13 02:35:49;;;;;;;;;;;9.70;99.90;;;;;;4408903;32;19977;-72
2023/01/13 02:38:15;;;;;;;;;;;9.70;99.90;;;;;;4405971;32;19948;-73
2023/01/13 02:44:05;;;;;;;;;;;9.70;99.90;;;;;;4399104;32;20117;-73
2023/01/13 02:44:18;;;;;;;;;;;9.70;99.90;;;;;;4392469;32;19969;-73
2023/01/13 02:46:38;;;;;;;;;;;9.70;99.90;;;;;;4407319;32;19973;-72
2023/01/13 02:49:05;;;;;;;;;;;9.70;99.90;;;;;;4410035;32;19956;-71
2023/01/13 02:51:31;;;;;;;;;;;9.70;99.90;;;;;;4406544;32;20003;-73
2023/01/13 02:54:02;;;;;;;;;;;9.70;99.90;;;;;;4393383;32;21173;-72
2023/01/13 02:56:27;;;;;;;;;;;9.70;99.90;;;;;;4405758;32;20024;-73
2023/01/13 02:58:54;;;;;;;;;;;9.70;99.90;;;;;;4398306;32;20318;-73
2023/01/13 03:01:20;;;;;;;;;;;9.70;99.90;;;;;;4403502;32;19958;-72
2023/01/13 03:03:46;;;;;;;;;;;9.70;99.90;;;;;;4404895;32;19950;-72
2023/01/13 03:06:20;;;;;;;;;;;9.70;99.90;;;;;;4405432;32;19949;-72
2023/01/13 03:08:47;;;;;;;;;;;9.70;99.90;;;;;;4406257;32;19977;-72
2023/01/13 03:11:13;;;;;;;;;;;9.70;99.90;;;;;;4393890;32;20428;-72
2023/01/13 03:13:47;;;;;;;;;;;9.70;99.90;;;;;;4390256;32;19957;-73
2023/01/13 03:16:24;;;;;;;;;;;9.70;99.90;;;;;;4400728;32;20303;-72
2023/01/13 03:18:53;;;;;;;;;;;9.70;99.90;;;;;;4403314;32;20001;-73
2023/01/13 03:21:21;;;;;;;;;;;9.70;99.90;;;;;;4404860;32;19956;-74
2023/01/13 03:23:51;;;;;;;;;;;9.70;99.90;;;;;;4399111;32;19956;-73
2023/01/13 03:26:23;;;;;;;;;;;9.70;99.90;;;;;;4406349;32;19942;-72
2023/01/13 03:28:54;;;;;;;;;;;9.70;99.90;;;;;;4395846;32;19974;-74
2023/01/13 03:31:23;;;;;;;;;;;9.70;99.90;;;;;;4406380;32;19953;-72
2023/01/13 03:33:54;;;;;;;;;;;9.60;99.90;;;;;;4406945;32;19950;-73
2023/01/13 03:36:24;;;;;;;;;;;9.70;99.90;;;;;;4403588;32;20326;-73
2023/01/13 03:38:52;;;;;;;;;;;9.60;99.90;;;;;;4401347;32;19952;-74
2023/01/13 03:41:21;;;;;;;;;;;9.60;99.90;;;;;;4393921;32;20071;-73
2023/01/13 03:44:20;;;;;;;;;;;9.60;99.90;;;;;;4386673;32;20360;-74
2023/01/13 03:46:38;;;;;;;;;;;9.60;99.90;;;;;;4405378;32;19997;-73
2023/01/13 03:49:06;;;;;;;;;;;9.60;99.90;;;;;;4403850;32;19966;-72
2023/01/13 03:51:33;;;;;;;;;;;9.60;99.90;;;;;;4404505;32;20215;-73
2023/01/13 03:54:00;;;;;;;;;;;9.60;99.90;;;;;;4394659;32;19977;-72
2023/01/13 03:56:28;;;;;;;;;;;9.50;99.90;;;;;;4405358;32;20008;-73
2023/01/13 03:58:54;;;;;;;;;;;9.50;99.90;;;;;;4393373;32;19997;-73
2023/01/13 04:01:24;;;;;;;;;;;9.50;99.90;;;;;;4404615;32;19964;-73
2023/01/13 04:03:52;;;;;;;;;;;9.60;99.90;;;;;;4404396;32;19958;-72
2023/01/13 04:06:24;;;;;;;;;;;9.60;99.90;;;;;;4406196;32;19967;-73
2023/01/13 04:08:53;;;;;;;;;;;9.60;99.90;;;;;;4404809;32;19945;-74
2023/01/13 04:11:24;;;;;;;;;;;9.60;99.90;;;;;;4391729;32;20399;-75
2023/01/13 04:13:49;;;;;;;;;;;9.60;99.90;;;;;;4389245;32;19966;-74
2023/01/13 04:16:14;;;;;;;;;;;9.60;99.90;;;;;;4400467;32;19981;-73
2023/01/13 04:18:40;;;;;;;;;;;9.60;99.90;;;;;;4404144;32;19965;-73
2023/01/13 04:21:06;;;;;;;;;;;9.60;99.90;;;;;;4403411;32;19955;-73
2023/01/13 04:23:31;;;;;;;;;;;9.70;99.90;;;;;;4390173;32;19954;-74
2023/01/13 04:25:57;;;;;;;;;;;9.60;99.90;;;;;;4403531;32;20503;-73
2023/01/13 04:28:23;;;;;;;;;;;9.60;99.90;;;;;;4397980;32;19984;-77
2023/01/13 04:30:48;;;;;;;;;;;9.60;99.90;;;;;;4397308;32;19969;-73
2023/01/13 04:33:14;;;;;;;;;;;9.60;99.90;;;;;;4406875;32;19965;-72
2023/01/13 04:35:40;;;;;;;;;;;9.60;99.90;;;;;;4404993;32;19957;-72
2023/01/13 04:38:07;;;;;;;;;;;9.60;99.90;;;;;;4400288;32;19945;-73
2023/01/13 04:40:32;;;;;;;;;;;9.60;99.90;;;;;;4394740;32;19948;-74
2023/01/13 04:42:58;;;;;;;;;;;9.60;99.90;;;;;;4387571;32;20369;-72
2023/01/13 04:45:23;;;;;;;;;;;9.60;99.90;;;;;;4394246;32;19957;-72
2023/01/13 04:47:48;;;;;;;;;;;9.60;99.90;;;;;;4402033;32;19993;-73
2023/01/13 04:50:18;;;;;;;;;;;9.60;99.90;;;;;;4402839;32;19987;-73
2023/01/13 04:52:44;;;;;;;;;;;9.60;99.90;;;;;;4395124;32;20326;-73
2023/01/13 04:55:10;;;;;;;;;;;9.60;99.90;;;;;;4396567;32;20326;-74
2023/01/13 04:57:36;;;;;;;;;;;9.50;99.90;;;;;;4396609;32;19942;-72
2023/01/13 05:00:03;;;;;;;;;;;9.60;99.90;;;;;;4394833;32;19961;-73
2023/01/13 05:02:28;;;;;;;;;;;9.60;99.90;;;;;;4404198;32;19949;-72
2023/01/13 05:04:54;;;;;;;;;;;9.70;99.90;;;;;;4405809;32;20361;-73
2023/01/13 05:07:19;;;;;;;;;;;9.70;99.90;;;;;;4400813;32;19959;-74
2023/01/13 05:09:45;;;;;;;;;;;9.70;99.90;;;;;;4399193;32;19946;-74
2023/01/13 05:16:59;;;;;;;;;;;9.70;99.90;;;;;;4379057;32;19951;-73
2023/01/13 05:17:42;;;;;;;;;;;9.70;99.90;;;;;;4400732;32;20318;-75
2023/01/13 05:20:08;;;;;;;;;;;9.80;99.90;;;;;;4406457;32;19952;-72
2023/01/13 05:25:20;;;;;;;;;;;9.80;99.90;;;;;;4356065;32;19994;-74
2023/01/13 05:27:46;;;;;;;;;;;9.80;99.90;;;;;;4360065;32;19968;-74
2023/01/13 05:30:11;;;;;;;;;;;9.80;99.90;;;;;;4359028;32;19949;-74
2023/01/13 05:32:36;;;;;;;;;;;9.70;99.90;;;;;;4361884;32;19948;-73
2023/01/13 05:35:02;;;;;;;;;;;9.70;99.90;;;;;;4363465;32;20361;-73
2023/01/13 05:37:28;;;;;;;;;;;9.80;99.90;;;;;;4382626;32;20499;-72
2023/01/13 05:43:38;;;;;;;;;;;9.80;99.90;;;;;;4386454;32;21236;-75
2023/01/13 05:45:24;;;;;;;;;;;9.80;99.90;;;;;;4398761;32;19970;-74
2023/01/13 05:47:49;;;;;;;;;;;9.90;99.90;;;;;;4405542;32;20440;-73
2023/01/13 05:50:15;;;;;;;;;;;9.90;99.90;;;;;;4403408;32;19953;-73
2023/01/13 05:52:40;;;;;;;;;;;9.80;99.90;;;;;;4377605;32;20100;-74
2023/01/13 05:55:06;;;;;;;;;;;9.90;99.90;;;;;;4359007;32;19969;-74
2023/01/13 05:57:32;;;;;;;;;;;9.90;99.90;;;;;;4388140;32;20000;-73
2023/01/13 05:59:57;;;;;;;;;;;9.90;99.90;;;;;;4398180;32;19953;-73
2023/01/13 06:02:23;;;;;;;;;;;9.90;99.90;;;;;;4400865;32;19972;-74
2023/01/13 06:04:49;;;;;;;;;;;9.90;99.90;;;;;;4376354;32;20091;-74
2023/01/13 06:07:14;;;;;;;;;;;9.90;99.90;;;;;;4369942;32;21047;-74
2023/01/13 06:09:39;;;;;;;;;;;9.90;99.90;;;;;;4364898;32;20352;-74
2023/01/13 06:12:05;;;;;;;;;;;9.90;99.90;;;;;;4357609;32;19973;-74
2023/01/13 06:14:38;;;;;;;;;;;9.90;99.90;;;;;;4352230;32;20383;-74
2023/01/13 06:17:05;;;;;;;;;;;9.90;99.90;;;;;;4365218;32;20601;-74
2023/01/13 06:19:31;;;;;;;;;;;9.90;99.90;;;;;;4316249;32;20143;-74
2023/01/13 06:21:56;;;;;;;;;;;9.90;99.90;;;;;;4324106;32;19985;-74
2023/01/13 06:24:22;;;;;;;;;;;10.00;99.90;;;;;;4288576;32;20282;-74
2023/01/13 06:26:47;;;;;;;;;;;10.00;99.90;;;;;;4318679;32;20441;-74
2023/01/13 06:29:15;;;;;;;;;;;10.00;99.90;;;;;;4310343;32;20232;-74
2023/01/13 06:31:41;;;;;;;;;;;10.00;99.90;;;;;;4289572;32;20210;-73
2023/01/13 06:34:10;;;;;;;;;;;10.00;99.90;;;;;;4320103;32;20243;-75
2023/01/13 06:36:39;;;;;;;;;;;10.00;99.90;;;;;;4321222;32;19998;-74
2023/01/13 06:39:05;;;;;;;;;;;10.00;99.90;;;;;;4344741;32;20346;-74
2023/01/13 06:43:31;;;;;;;;;;;10.00;99.90;;;;;;4338586;32;20070;-73
2023/01/13 06:44:18;;;;;;;;;;;10.00;99.90;;;;;;4355556;32;20013;-75
2023/01/13 06:46:44;;;;;;;;;;;10.00;99.90;;;;;;4371038;32;20020;-75
2023/01/13 06:49:09;;;;;;;;;;;10.00;99.90;;;;;;4364558;32;20322;-74
2023/01/13 06:51:35;;;;;;;;;;;10.00;99.90;;;;;;4360132;32;19970;-75
2023/01/13 06:54:00;;;;;;;;;;;9.90;99.90;;;;;;4358533;32;20129;-73
2023/01/13 06:56:26;;;;;;;;;;;9.80;99.90;;;;;;4371633;32;19977;-75
2023/01/13 06:58:52;;;;;;;;;;;9.80;99.90;;;;;;4361712;32;19965;-75
2023/01/13 07:01:17;;;;;;;;;;;9.80;99.90;;;;;;4345927;32;20060;-74
2023/01/13 07:03:42;;;;;;;;;;;9.80;99.90;;;;;;4341324;32;19966;-74
2023/01/13 07:06:08;;;;;;;;;;;9.80;99.90;;;;;;4347002;32;20017;-74
2023/01/13 07:08:34;;;;;;;;;;;9.80;99.90;;;;;;4365328;32;20346;-73
2023/01/13 07:11:01;;;;;;;;;;;9.80;99.90;;;;;;4364130;32;20441;-73
2023/01/13 07:15:26;;;;;;;;;;;9.80;99.90;;;;;;4368579;32;19985;-76
2023/01/13 07:16:12;;;;;;;;;;;9.90;99.90;;;;;;4368807;32;20246;-74
2023/01/13 07:18:37;;;;;;;;;;;9.90;99.90;;;;;;4365361;32;20661;-74
2023/01/13 07:21:04;;;;;;;;;;;9.90;99.90;;;;;;4351214;32;19973;-73
2023/01/13 07:23:31;;;;;;;;;;;9.90;99.90;;;;;;4366260;32;19973;-74
2023/01/13 07:25:57;;;;;;;;;;;9.90;99.90;;;;;;4355606;32;19977;-75
2023/01/13 07:28:24;;;;;;;;;;;9.90;99.90;;;;;;4355510;32;20088;-75
2023/01/13 07:30:50;;;;;;;;;;;9.80;99.90;;;;;;4347817;32;20586;-75
2023/01/13 07:33:17;;;;;;;;;;;9.80;99.90;;;;;;4321886;32;673576;-75
2023/01/13 07:35:43;;;;;;;;;;;9.80;99.90;;;;;;4351563;32;20540;-74
2023/01/13 07:38:09;;;;;;;;;;;9.80;99.90;;;;;;4365380;32;20129;-74
2023/01/13 07:40:35;;;;;;;;;;;9.80;99.90;;;;;;4374409;32;20080;-73
2023/01/13 07:43:32;;;;;;;;;;;9.80;99.90;;;;;;4357162;32;20458;-74
2023/01/13 07:45:46;;;;;;;;;;;9.80;99.90;;;;;;4353561;32;20013;-74
2023/01/13 07:48:12;;;;;;;;;;;9.80;99.90;;;;;;4365177;32;20691;-74
2023/01/13 07:50:37;;;;;;;;;;;9.70;99.90;;;;;;4358885;32;19989;-72
2023/01/13 07:53:02;;;;;;;;;;;9.70;99.90;;;;;;4363840;32;20116;-73
2023/01/13 07:55:28;;;;;;;;;;;9.80;99.90;;;;;;4356659;32;20234;-74
2023/01/13 07:57:53;;;;;;;;;;;9.70;99.90;;;;;;4360565;32;20362;-73
2023/01/13 08:00:19;;;;;;;;;;;9.70;99.90;;;;;;4355818;32;19969;-74
2023/01/13 08:02:47;;;;;;;;;;;9.70;99.90;;;;;;4366180;32;20048;-74
2023/01/13 08:05:12;;;;;;;;;;;9.70;99.90;;;;;;4365827;32;19953;-74
2023/01/13 08:07:39;;;;;;;;;;;9.70;99.90;;;;;;4376685;32;21461;-74
2023/01/13 08:10:04;;;;;;;;;;;9.70;99.90;;;;;;4378301;32;20055;-73
2023/01/13 08:13:30;;;;;;;;;;;9.60;99.90;;;;;;4370180;32;20420;-74
2023/01/13 08:15:16;;;;;;;;;;;9.50;99.90;;;;;;4360548;32;19988;-75
2023/01/13 08:17:42;;;;;;;;;;;9.50;99.90;;;;;;4362883;32;20136;-74
2023/01/13 08:20:08;;;;;;;;;;;9.50;99.90;;;;;;4360886;32;19984;-75
2023/01/13 08:22:33;;;;;;;;;;;9.50;99.90;;;;;;4376993;32;20002;-75
2023/01/13 08:24:59;;;;;;;;;;;9.50;99.90;;;;;;4366245;32;20140;-75
2023/01/13 08:27:24;;;;;;;;;;;9.50;99.90;;;;;;4363348;32;19966;-75
2023/01/13 08:29:50;;;;;;;;;;;9.50;99.90;;;;;;4346047;32;20765;-74
2023/01/13 08:32:15;;;;;;;;;;;9.50;99.90;;;;;;4340396;32;20115;-76
2023/01/13 08:34:41;;;;;;;;;;;9.50;99.90;;;;;;4337725;32;19985;-75
2023/01/13 08:37:06;;;;;;;;;;;9.50;99.90;;;;;;4363800;32;20032;-76
2023/01/13 08:39:31;;;;;;;;;;;9.50;99.90;;;;;;4373691;32;20381;-75
2023/01/13 08:41:59;;;;;;;;;;;9.60;99.90;;;;;;4370996;32;19965;-75
2023/01/13 08:44:26;;;;;;;;;;;9.60;99.90;;;;;;4370381;32;20136;-75
2023/01/13 08:46:51;;;;;;;;;;;9.70;99.90;;;;;;4363341;32;21952;-75
2023/01/13 08:49:17;;;;;;;;;;;9.60;99.90;;;;;;4346258;32;20596;-74
2023/01/13 08:51:42;;;;;;;;;;;9.60;99.90;;;;;;4341241;32;20956;-75
2023/01/13 08:54:08;;;;;;;;;;;9.50;99.90;;;;;;4350043;32;20017;-74
2023/01/13 08:56:34;;;;;;;;;;;9.50;99.90;;;;;;4381639;27;20103;-66
2023/01/13 08:58:59;;;;;;;;;;;9.50;99.90;;;;;;4326309;32;20311;-66
2023/01/13 09:01:25;;;;;;;;;;;9.50;99.90;;;;;;4314387;32;20105;-66
2023/01/13 09:03:51;;;;;;;;;;;9.60;99.90;;;;;;4314184;32;19976;-66
2023/01/13 09:06:16;;;;;;;;;;;9.60;99.90;;;;;;4326181;32;20258;-66
2023/01/13 09:08:42;;;;;;;;;;;9.60;99.90;;;;;;4332378;32;20666;-65
2023/01/13 09:13:16;;;;;;;;;;;9.60;99.90;;;;;;4345964;32;20058;-66
2023/01/13 09:14:00;;;;;;;;;;;9.60;99.90;;;;;;4321594;32;19973;-66
2023/01/13 09:16:26;;;;;;;;;;;9.50;99.90;;;;;;4333948;32;21166;-66
2023/01/13 09:18:51;;;;;;;;;;;9.50;99.90;;;;;;4337019;32;20055;-66
2023/01/13 09:21:18;;;;;;;;;;;9.60;99.90;;;;;;4342154;32;20748;-66
2023/01/13 09:23:44;;;;;;;;;;;9.60;99.90;;;;;;4344020;32;19977;-68
2023/01/13 09:26:10;;;;;;;;;;;9.60;99.90;;;;;;4339787;32;20642;-68
2023/01/13 09:28:35;;;;;;;;;;;9.60;99.90;;;;;;4335446;32;20155;-67
2023/01/13 09:31:00;;;;;;;;;;;9.70;99.90;;;;;;4335403;32;19946;-67
2023/01/13 09:35:26;;;;;;;;;;;9.70;99.90;;;;;;4335194;32;20775;-67
2023/01/13 09:36:11;;;;;;;;;;;9.70;99.90;;;;;;4339628;32;19954;-68
2023/01/13 09:38:37;;;;;;;;;;;9.70;99.90;;;;;;4347298;32;19997;-68
2023/01/13 09:43:52;;;;;;;;;;;9.70;99.90;;;;;;4349039;32;20857;-68
2023/01/13 09:43:52;;;;;;;;;;;9.70;99.90;;;;;;4353131;32;19980;-68
2023/01/13 09:46:51;;;;;;;;;;;9.70;99.90;;;;;;4351126;32;20891;-68
2023/01/13 09:49:14;;;;;;;;;;;9.60;99.90;;;;;;4340630;32;19990;-68
2023/01/13 09:51:44;;;;;;;;;;;9.50;99.90;;;;;;4339384;32;20046;-68
2023/01/13 09:54:18;;;;;;;;;;;9.50;99.90;;;;;;4340010;32;20370;-68
2023/01/13 09:56:44;;;;;;;;;;;9.50;99.90;;;;;;4341174;32;20085;-68
2023/01/13 09:59:10;;;;;;;;;;;9.50;99.90;;;;;;4347218;32;20203;-68
2023/01/13 10:01:40;;;;;;;;;;;9.50;99.90;;;;;;4342749;32;20072;-68
2023/01/13 10:04:10;;;;;;;;;;;9.50;99.90;;;;;;4329217;32;20102;-68
2023/01/13 10:06:37;;;;;;;;;;;9.50;99.90;;;;;;4326917;32;21526;-68
2023/01/13 10:09:03;;;;;;;;;;;9.40;99.90;;;;;;4337566;32;19973;-68
2023/01/13 10:13:35;;;;;;;;;;;9.40;99.90;;;;;;4343068;32;20501;-68
2023/01/13 10:14:27;;;;;;;;;;;9.30;99.90;;;;;;4348525;32;20654;-68
2023/01/13 10:17:02;;;;;;;;;;;9.30;99.90;;;;;;4351500;32;20413;-67
2023/01/13 10:19:47;;;;;;;;;;;9.20;99.90;;;;;;4335698;32;20422;-67
2023/01/13 10:22:17;;;;;;;;;;;9.30;99.90;;;;;;4329927;32;21014;-67
2023/01/13 10:24:52;;;;;;;;;;;9.40;99.90;;;;;;4339168;32;20391;-66
2023/01/13 10:27:25;;;;;;;;;;;9.50;99.90;;;;;;4346838;32;20192;-68
2023/01/13 10:29:50;;;;;;;;;;;9.50;99.90;;;;;;4335165;32;19999;-68
2023/01/13 10:32:16;;;;;;;;;;;9.50;99.90;;;;;;4353417;32;20036;-68
2023/01/13 10:34:47;;;;;;;;;;;9.50;99.90;;;;;;4338185;32;19969;-69
2023/01/13 10:37:18;;;;;;;;;;;9.40;99.90;;;;;;4355086;32;21114;-67
2023/01/13 10:39:45;;;;;;;;;;;9.50;99.90;;;;;;4353303;32;20103;-66
2023/01/13 10:42:12;;;;;;;;;;;9.50;99.90;;;;;;4358357;32;20255;-66
2023/01/13 10:44:45;;;;;;;;;;;9.50;99.90;;;;;;4359406;32;21360;-66
2023/01/13 10:47:18;;;;;;;;;;;9.40;99.90;;;;;;4362858;32;20250;-65
2023/01/13 10:49:57;;;;;;;;;;;9.40;99.90;;;;;;4343994;32;19974;-66
2023/01/13 10:52:24;;;;;;;;;;;9.40;99.90;;;;;;4348573;32;20015;-65
2023/01/13 10:54:50;;;;;;;;;;;9.40;99.90;;;;;;4346221;32;19979;-67
2023/01/13 10:57:20;;;;;;;;;;;9.50;99.90;;;;;;4346656;32;20032;-67
2023/01/13 10:59:46;;;;;;;;;;;9.40;99.90;;;;;;4344129;32;20085;-69
2023/01/13 11:02:23;;;;;;;;;;;9.50;99.90;;;;;;4343373;32;19985;-66
2023/01/13 11:04:53;;;;;;;;;;;9.50;99.90;;;;;;4337167;32;20907;-66
2023/01/13 11:07:23;;;;;;;;;;;9.50;99.90;;;;;;4353295;32;20028;-66
2023/01/13 11:10:01;;;;;;;;;;;9.50;99.90;;;;;;4367415;32;20496;-66
2023/01/13 11:12:32;;;;;;;;;;;9.60;99.90;;;;;;4340669;32;20594;-66
2023/01/13 11:15:00;;;;;;;;;;;9.80;99.90;;;;;;4352972;32;20011;-66
2023/01/13 11:17:27;;;;;;;;;;;10.00;99.90;;;;;;4354610;32;19964;-66
2023/01/13 11:19:56;;;;;;;;;;;10.10;99.90;;;;;;4393765;26;19973;-67
2023/01/13 11:22:26;;;;;;;;;;;10.20;99.90;;;;;;4382396;32;19990;-67
2023/01/13 11:24:52;;;;;;;;;;;10.30;99.90;;;;;;4368867;32;20532;-67
2023/01/13 11:27:38;;;;;;;;;;;10.40;99.90;;;;;;4381511;32;20076;-67
2023/01/13 11:30:11;;;;;;;;;;;10.60;99.90;;;;;;4348807;32;20202;-67
2023/01/13 11:32:44;;;;;;;;;;;10.60;99.90;;;;;;4401852;26;20268;-74
2023/01/13 11:35:16;;;;;;;;;;;10.70;99.90;;;;;;4374925;32;20155;-75
2023/01/13 11:37:43;;;;;;;;;;;10.80;99.90;;;;;;4377403;32;20056;-74
2023/01/13 11:43:23;;;;;;;0.40;0.40;;;11.10;99.90;;;;;;4424497;32;82086;-69
2023/01/13 11:45:55;;;;;;;0.35;0.35;;;11.20;99.90;;;;;;4430777;32;20049;-67
2023/01/13 11:48:25;;;;;;;1.20;0.77;;;11.20;99.90;;;;;;4427935;32;20112;-67
2023/01/13 11:51:00;;;;;;;0.40;0.40;;;11.30;99.90;;;;;;4420622;26;20174;-75
2023/01/13 11:53:56;;;;;;;0.40;0.40;;;11.50;99.90;;;;;;4368054;32;20706;-74
2023/01/13 11:56:35;;;;;;;0.65;0.65;;;11.30;99.90;;;;;;4381073;32;20695;-74
2023/01/13 11:59:15;;;;;;;0.60;0.60;;;11.40;99.90;;;;;;4369659;32;20094;-74
2023/01/13 12:02:13;;;;;;;0.50;0.50;;;11.70;99.90;;;;;;4371487;32;20208;-74
2023/01/13 12:05:05;;;;;;;0.40;0.40;;;12.00;99.90;;;;;;4354239;32;20094;-73
2023/01/13 12:07:47;;;;;;;0.40;0.40;;;12.10;99.90;;;;;;4370166;32;20784;-72
2023/01/13 12:10:30;;;;;;;0.30;0.30;;;12.40;99.90;;;;;;4377139;32;20097;-74
2023/01/13 12:13:10;;;;;;;0.62;0.62;;;12.40;99.90;;;;;;4368752;32;20405;-75
2023/01/13 12:15:41;;;;;;;0.30;0.30;;;12.60;99.90;;;;;;4367835;32;20603;-73
2023/01/13 12:18:28;;;;;;;0.35;0.35;;;12.50;99.90;;;;;;4374932;32;20253;-74
2023/01/13 12:21:03;;;;;;;1.58;0.60;;;12.70;99.90;;;;;;4369394;32;20077;-73
2023/01/13 12:23:35;;;;;;;0.50;0.50;;;12.90;99.90;;;;;;4371939;32;20769;-73
2023/01/13 12:26:09;;;;;;;0.40;0.40;;;12.90;99.90;;;;;;4377488;32;20470;-73
2023/01/13 12:28:54;;;;;;;0.50;0.50;;;13.00;99.90;;;;;;4378309;32;20890;-73
2023/01/13 12:31:22;;;;;;;0.40;0.40;;;13.20;99.90;;;;;;4373084;32;20153;-73
2023/01/13 12:34:00;;;;;;;0.60;0.60;;;13.40;99.90;;;;;;4366937;32;21411;-74
2023/01/13 12:36:52;;;;;;;0.40;0.40;;;13.50;99.90;;;;;;4379566;32;20560;-73
2023/01/13 12:39:33;;;;;;;0.40;0.40;;;13.50;99.90;;;;;;4371449;32;20117;-75
2023/01/13 12:44:25;;;;;;;0.40;0.40;;;13.40;99.90;;;;;;4367988;32;20106;-74
2023/01/13 12:45:13;;;;;;;0.40;0.40;;;13.30;99.90;;;;;;4336712;32;20884;-72
2023/01/13 12:47:42;;;;;;;0.90;0.60;;;13.40;99.90;;;;;;4362922;32;20553;-73
2023/01/13 12:50:26;;;;;;;2.37;0.50;;;13.60;99.90;;;;;;4372077;32;20101;-73
2023/01/13 12:52:55;;;;;;;0.40;0.40;;;13.10;99.90;;;;;;4377065;32;20101;-73
2023/01/13 12:55:23;;;;;;;0.50;0.50;;;13.00;99.90;;;;;;4371681;32;20149;-74
2023/01/13 12:58:06;;;;;;;0.70;0.70;;;12.90;99.90;;;;;;4377969;32;20097;-74
2023/01/13 13:00:55;;;;;;;3.70;0.70;;;12.90;99.90;;;;;;4371384;32;20129;-74
2023/01/13 13:03:32;;;;;;;0.30;0.30;;;12.90;99.90;;;;;;4367637;32;20094;-74
2023/01/13 13:06:20;;;;;;;0.40;0.40;;;13.10;99.90;;;;;;4375390;32;20176;-74
2023/01/13 13:09:18;;;;;;;0.30;0.30;;;13.60;99.90;;;;;;4373326;32;20201;-76
2023/01/13 13:14:49;;;;;;;0.40;0.40;;;13.40;99.90;;;;;;4369546;32;20073;-77
2023/01/13 13:17:33;;;;;;;0.40;0.40;;;12.70;99.90;;;;;;4353407;32;20903;-75
2023/01/13 13:20:00;;;;;;;2.30;0.70;;;12.60;99.90;;;;;;4363452;32;20962;-76
2023/01/13 13:22:28;;;;;;;0.93;0.35;;;12.60;99.90;;;;;;4376432;32;20114;-75
2023/01/13 13:24:56;;;;;;;0.50;0.50;;;12.50;99.90;;;;;;4369641;32;20283;-76
2023/01/13 13:27:43;;;;;;;0.60;0.60;;;12.30;99.90;;;;;;4365685;32;20265;-77
2023/01/13 13:30:29;;;;;;;0.85;0.80;;;12.20;99.90;;;;;;4351774;32;20262;-77
2023/01/13 13:33:30;;;;;;;3.30;0.65;;;12.00;99.90;;;;;;4338780;32;20348;-76
2023/01/13 13:36:20;;;;;;;0.50;0.50;;;11.80;99.90;;;;;;4343516;32;20172;-76
2023/01/13 13:47:00;;;;;;;0.90;0.75;;;11.30;99.90;;;;;;4365813;32;20235;-76
2023/01/13 13:47:46;;;;;;;0.40;0.40;;;11.30;99.90;;;;;;4374113;32;20486;-78
2023/01/13 13:50:18;;;;;;;0.62;0.62;;;11.30;99.90;;;;;;4384759;32;20109;-75
2023/01/13 13:52:57;;;;;;;1.45;1.08;;;11.20;99.90;;;;;;4391315;32;20190;-77
2023/01/13 13:55:26;;;;;;;0.40;0.40;;;11.20;99.90;;;;;;4390391;32;20077;-76
2023/01/13 13:57:54;;;;;;;0.37;0.37;;;11.10;99.90;;;;;;4398469;32;20152;-76
2023/01/13 14:00:29;;;;;;;0.40;0.40;;;11.10;99.90;;;;;;4384366;32;20128;-76
2023/01/13 14:03:00;;;;;;;0.40;0.40;;;11.00;99.90;;;;;;4376190;32;20112;-77
2023/01/13 14:05:29;;;;;;;0.60;0.60;;;10.90;99.90;;;;;;4378781;32;20457;-75
2023/01/13 14:08:17;;;;;;;0.40;0.40;;;10.90;99.90;;;;;;4396146;32;20132;-75
2023/01/13 14:10:44;;;;;;;4.12;0.62;;;10.80;99.90;;;;;;4396811;32;20386;-75
2023/01/13 14:13:20;;;;;;;0.50;0.50;;;10.80;99.90;;;;;;4384376;32;20572;-76
2023/01/13 14:15:49;;;;;;;0.40;0.40;;;10.80;99.90;;;;;;4384380;32;20554;-75
2023/01/13 14:18:19;;;;;;;0.37;0.37;;;10.80;99.90;;;;;;4375407;32;20102;-76
2023/01/13 14:20:53;;;;;;;0.47;0.47;;;10.80;99.90;;;;;;4375736;32;20067;-77
2023/01/13 14:23:23;;;;;;;0.50;0.50;;;10.80;99.90;;;;;;4379412;32;21537;-77
2023/01/13 14:25:50;;;;;;;0.60;0.60;;;10.80;99.90;;;;;;4379635;32;20109;-75
2023/01/13 14:28:27;;;;;;;10.80;0.75;;;10.70;99.90;;;;;;4386087;32;20093;-76
2023/01/13 14:30:54;;;;;;;0.35;0.35;;;10.60;99.90;;;;;;4374007;32;20712;-75
2023/01/13 14:33:37;;;;;;;0.40;0.40;;;10.60;99.90;;;;;;4361139;32;20111;-76
2023/01/13 14:36:08;;;;;;;0.43;0.43;;;10.60;99.90;;;;;;4370902;32;20118;-76
2023/01/13 14:38:33;;;;;;;0.40;0.40;;;10.70;99.90;;;;;;4387059;32;20093;-74
2023/01/13 14:41:18;;;;;;;0.40;0.40;;;10.70;99.90;;;;;;4383539;32;20614;-75
2023/01/13 14:43:46;;;;;;;0.40;0.40;;;10.60;99.90;;;;;;4378983;32;20126;-76
2023/01/13 14:46:12;;;;;;;2.10;1.17;;;10.60;99.90;;;;;;4378992;32;20193;-76